Country
Station

 

Weather  for  Talara  -  Peru    Peru

  
29 °C (84 °F)
    
 
 

Current METAR for Talara is :

SPYL 211800Z 19012KT 9999 SCT050 29/18 Q1011 RMK BIRD HAZARD RWY 17/35 PP000

 

This is a report for Talara - Peru.
 
The report was made 25 minutes ago, at 18:00 UTC .
The wind was blowing at a speed of 6.2 meters per second (13.8 miles per hour) from south (190°).
 
The temperature was 29 °C (84 °F), with a dew-point at 18 °C (64 °F).
The temperature felt like 29 °C (85 °F).
 
The atmospheric pressure was 1011 hPa (29.85 inHg).
The relative humidity was 51.5%.
 
There were scattered clouds at a height of 1524 meters (5000 feet).
 
The overall visibility was greater than 10 kilometers (6.2 miles).
 

 
 
 
 

Country :   A   B   C   D   E   F   G   H   I   J   K   L   M   N   O   P   Q   R   S   T   U   V   W   Y   Z

 

Site Info  |  Disclaimer  |  Credits  |  Privacy
Contact us  |  Add to favorites
© 2013-2018 METARs - All rights reserved